Time;durP1;ratioP1;P1;durP2;ratioP2;P2;SDS_P1;SDS_P2;PMS_P1;PMS_P2;Temp;Humidity;BMP_temperature;BMP_pressure;BME280_temperature;BME280_humidity;BME280_pressure;Samples;Min_cycle;Max_cycle;Signal;HPM_P1;HPM_P2
2021/10/17 04:02:29;;;;;;;6.07;5.25;;;9.50;99.90;;;;;;5044125;23;20229;-70
2021/10/17 04:04:56;;;;;;;7.25;4.93;;;9.40;99.90;;;;;;4956334;29;20271;-70
2021/10/17 04:07:23;;;;;;;7.15;5.13;;;9.40;99.90;;;;;;4956357;28;20685;-71
2021/10/17 04:09:49;;;;;;;6.80;5.10;;;9.40;99.90;;;;;;4955779;29;20576;-71
2021/10/17 04:12:16;;;;;;;8.77;4.85;;;9.40;99.90;;;;;;4956005;28;20229;-70
2021/10/17 04:14:43;;;;;;;6.22;5.10;;;9.50;99.90;;;;;;4956040;29;20213;-69
2021/10/17 04:17:09;;;;;;;6.85;4.05;;;9.40;99.90;;;;;;4956426;29;20570;-69
2021/10/17 04:19:37;;;;;;;13.73;5.03;;;9.50;99.90;;;;;;4955998;29;20268;-69
2021/10/17 04:22:04;;;;;;;6.68;4.40;;;9.50;99.90;;;;;;4956283;29;20233;-69
2021/10/17 04:24:31;;;;;;;8.50;5.60;;;9.50;99.90;;;;;;4955267;28;20213;-69
2021/10/17 04:26:57;;;;;;;7.38;4.93;;;9.50;99.90;;;;;;4955984;29;20229;-69
2021/10/17 04:29:24;;;;;;;9.30;5.45;;;9.50;99.90;;;;;;4955972;29;20267;-69
2021/10/17 04:31:51;;;;;;;6.38;4.85;;;9.50;99.90;;;;;;4956143;29;20329;-69
2021/10/17 04:34:17;;;;;;;5.65;4.95;;;9.50;99.90;;;;;;4953979;28;20603;-69
2021/10/17 04:36:45;;;;;;;7.38;5.15;;;9.50;99.90;;;;;;4956067;29;20532;-69
2021/10/17 04:39:12;;;;;;;7.95;5.50;;;9.50;99.90;;;;;;4944978;28;20213;-69
2021/10/17 04:41:40;;;;;;;7.57;5.47;;;9.50;99.90;;;;;;4936375;29;20603;-69
2021/10/17 04:44:06;;;;;;;7.00;4.75;;;9.50;99.90;;;;;;4936445;29;20225;-69
2021/10/17 04:46:33;;;;;;;5.55;4.28;;;9.50;99.90;;;;;;4936592;29;20229;-69
2021/10/17 04:49:00;;;;;;;4.93;4.45;;;9.50;99.90;;;;;;4936958;29;20210;-69
2021/10/17 04:51:26;;;;;;;7.75;5.50;;;9.50;99.90;;;;;;4936580;29;20237;-69
2021/10/17 04:53:54;;;;;;;6.10;4.50;;;9.40;99.90;;;;;;4936265;29;20213;-69
2021/10/17 04:56:21;;;;;;;7.07;4.70;;;9.40;99.90;;;;;;4936005;29;20209;-69
2021/10/17 04:58:48;;;;;;;6.60;4.97;;;9.40;99.90;;;;;;4936134;29;20244;-70
2021/10/17 05:01:15;;;;;;;8.90;5.55;;;9.40;99.90;;;;;;4936560;29;20240;-70
2021/10/17 05:03:41;;;;;;;4.93;4.53;;;9.30;99.90;;;;;;4936407;29;20242;-70
2021/10/17 05:06:10;;;;;;;9.88;4.90;;;9.30;99.90;;;;;;4936133;29;20621;-69
2021/10/17 05:08:37;;;;;;;6.93;6.15;;;9.20;99.90;;;;;;4935666;29;20364;-69
2021/10/17 05:11:06;;;;;;;8.18;5.40;;;9.20;99.90;;;;;;4935599;29;20236;-69
2021/10/17 05:13:32;;;;;;;8.45;5.00;;;9.10;99.90;;;;;;4935920;29;20273;-69
2021/10/17 05:15:59;;;;;;;8.77;5.43;;;9.10;99.90;;;;;;4936176;29;20210;-69
2021/10/17 05:18:26;;;;;;;13.25;5.85;;;9.00;99.90;;;;;;4935982;29;20218;-69
2021/10/17 05:20:52;;;;;;;7.45;5.25;;;9.00;99.90;;;;;;4935958;29;20266;-69
2021/10/17 05:23:21;;;;;;;5.38;4.88;;;9.00;99.90;;;;;;4936341;29;20260;-71
2021/10/17 05:25:48;;;;;;;9.13;7.72;;;9.00;99.90;;;;;;4935080;29;20210;-72
2021/10/17 05:28:16;;;;;;;10.20;7.22;;;9.00;99.90;;;;;;4935872;29;20654;-72
2021/10/17 05:30:42;;;;;;;7.07;6.40;;;9.00;99.90;;;;;;4935955;29;20575;-72
2021/10/17 05:33:09;;;;;;;8.68;5.80;;;9.00;99.90;;;;;;4935685;29;20284;-72
2021/10/17 05:35:36;;;;;;;12.80;5.50;;;9.10;99.90;;;;;;4935962;29;20214;-72
2021/10/17 05:38:02;;;;;;;6.65;5.35;;;9.00;99.90;;;;;;4935425;29;20210;-72
2021/10/17 05:40:29;;;;;;;13.25;5.85;;;9.10;99.90;;;;;;4934774;29;20241;-72
2021/10/17 05:42:56;;;;;;;6.05;4.75;;;9.10;99.90;;;;;;4935718;29;20213;-72
2021/10/17 05:45:24;;;;;;;5.55;5.07;;;9.10;99.90;;;;;;4935670;29;20356;-72
2021/10/17 05:47:50;;;;;;;8.25;4.97;;;9.20;99.90;;;;;;4935925;29;20229;-72
2021/10/17 05:50:17;;;;;;;8.02;5.93;;;9.20;99.90;;;;;;4935511;29;20627;-71
2021/10/17 05:52:44;;;;;;;9.93;6.03;;;9.20;99.90;;;;;;4935343;29;20232;-71
2021/10/17 05:55:11;;;;;;;7.13;5.65;;;9.20;99.90;;;;;;4934281;29;20698;-71
2021/10/17 05:57:38;;;;;;;13.45;6.30;;;9.20;99.90;;;;;;4935653;29;20285;-71
2021/10/17 06:00:06;;;;;;;6.35;5.65;;;9.20;99.90;;;;;;4935779;29;20257;-71
2021/10/17 06:02:35;;;;;;;5.95;5.38;;;9.30;99.90;;;;;;4935306;29;20588;-71
2021/10/17 06:05:01;;;;;;;8.73;5.88;;;9.30;99.90;;;;;;4935245;29;20303;-71
2021/10/17 06:07:28;;;;;;;7.70;5.53;;;9.30;99.90;;;;;;4935241;29;20300;-71
2021/10/17 06:09:55;;;;;;;14.70;6.60;;;9.30;99.90;;;;;;4934895;29;20210;-71
2021/10/17 06:12:21;;;;;;;11.73;6.43;;;9.40;99.90;;;;;;4935480;29;20230;-71
2021/10/17 06:14:48;;;;;;;8.07;6.22;;;9.40;99.90;;;;;;4935523;29;20899;-71
2021/10/17 06:17:15;;;;;;;11.90;6.05;;;9.40;99.90;;;;;;4934282;29;20246;-70
2021/10/17 06:19:43;;;;;;;6.35;5.72;;;9.50;99.90;;;;;;4935165;29;20214;-70
2021/10/17 06:22:09;;;;;;;10.50;5.80;;;9.50;99.90;;;;;;4935320;29;20329;-71
2021/10/17 06:24:36;;;;;;;8.00;6.40;;;9.50;99.90;;;;;;4934397;29;20222;-71
2021/10/17 06:27:03;;;;;;;8.95;6.40;;;9.50;99.90;;;;;;4935224;29;20545;-74
2021/10/17 06:29:30;;;;;;;11.77;6.85;;;9.60;99.90;;;;;;4934908;29;20304;-72
2021/10/17 06:31:57;;;;;;;11.73;6.53;;;9.60;99.90;;;;;;4935035;29;20230;-70
2021/10/17 06:34:24;;;;;;;8.00;6.13;;;9.70;99.90;;;;;;4934753;29;20646;-71
2021/10/17 06:36:52;;;;;;;10.95;6.82;;;9.70;99.90;;;;;;4934995;29;20214;-70
2021/10/17 06:39:18;;;;;;;10.07;7.15;;;9.70;99.90;;;;;;4934484;29;20210;-70
2021/10/17 06:41:45;;;;;;;9.95;6.57;;;9.70;99.90;;;;;;4934586;29;20238;-71
2021/10/17 06:44:12;;;;;;;9.63;6.97;;;9.70;99.90;;;;;;4934712;29;20210;-71
2021/10/17 06:46:38;;;;;;;9.30;7.43;;;9.70;99.90;;;;;;4935089;29;20269;-71
2021/10/17 06:49:05;;;;;;;8.95;7.05;;;9.70;99.90;;;;;;4935730;29;20226;-71
2021/10/17 06:51:32;;;;;;;8.73;7.72;;;9.70;99.90;;;;;;4938813;29;20288;-71
2021/10/17 06:54:00;;;;;;;8.07;7.25;;;9.80;99.90;;;;;;4938553;29;20214;-72
2021/10/17 06:56:26;;;;;;;6.75;6.00;;;9.80;99.90;;;;;;4938377;29;20776;-72
2021/10/17 06:58:53;;;;;;;8.48;5.80;;;9.80;99.90;;;;;;4938468;29;20213;-70
2021/10/17 07:01:20;;;;;;;9.90;6.38;;;9.80;99.90;;;;;;4938252;29;20284;-70
2021/10/17 07:03:46;;;;;;;8.65;6.88;;;9.80;99.90;;;;;;4938408;29;20268;-71
2021/10/17 07:06:14;;;;;;;9.90;6.47;;;9.80;99.90;;;;;;4938848;29;20297;-71
2021/10/17 07:08:41;;;;;;;6.95;6.25;;;9.90;99.90;;;;;;4938258;29;20225;-71
2021/10/17 07:11:10;;;;;;;6.88;6.22;;;9.90;99.90;;;;;;4938066;29;20622;-70
2021/10/17 07:13:36;;;;;;;8.10;6.88;;;9.90;99.90;;;;;;4938138;29;20222;-71
2021/10/17 07:16:03;;;;;;;12.45;7.68;;;9.90;99.90;;;;;;4938342;29;20651;-71
2021/10/17 07:18:30;;;;;;;8.20;6.60;;;9.90;99.90;;;;;;4938313;29;20213;-72
2021/10/17 07:20:57;;;;;;;11.15;7.00;;;9.90;99.90;;;;;;4938423;29;20285;-71
2021/10/17 07:23:24;;;;;;;12.63;6.97;;;10.00;99.90;;;;;;4938348;29;20717;-73
2021/10/17 07:25:50;;;;;;;9.68;6.93;;;10.00;99.90;;;;;;4937437;29;20678;-72
2021/10/17 07:28:18;;;;;;;9.85;5.90;;;10.10;99.90;;;;;;4937863;29;20261;-72
2021/10/17 07:30:45;;;;;;;15.68;7.00;;;10.10;99.90;;;;;;4937660;29;20290;-74
2021/10/17 07:33:12;;;;;;;10.82;6.05;;;10.10;99.90;;;;;;4938021;29;20224;-72
2021/10/17 07:35:39;;;;;;;7.85;6.18;;;10.10;99.90;;;;;;4937981;29;20261;-72
2021/10/17 07:38:06;;;;;;;11.25;6.80;;;10.20;99.90;;;;;;4938068;29;20257;-72
2021/10/17 07:40:33;;;;;;;9.70;6.63;;;10.30;99.90;;;;;;4936800;29;20638;-72
2021/10/17 07:42:59;;;;;;;10.27;7.05;;;10.30;99.90;;;;;;4937778;29;20679;-72
2021/10/17 07:45:27;;;;;;;8.98;6.07;;;10.30;99.90;;;;;;4937944;29;20210;-72
2021/10/17 07:47:54;;;;;;;11.85;6.65;;;10.30;99.90;;;;;;4938284;29;20380;-71
2021/10/17 07:50:20;;;;;;;7.90;6.15;;;10.30;99.90;;;;;;4937824;29;20205;-72
2021/10/17 07:52:47;;;;;;;8.63;6.18;;;10.40;99.90;;;;;;4937778;29;20214;-72
2021/10/17 07:55:14;;;;;;;10.82;6.55;;;10.40;99.90;;;;;;4936662;29;20265;-72
2021/10/17 07:57:48;;;;;;;12.45;5.93;;;10.40;99.90;;;;;;4936215;29;20655;-72
2021/10/17 08:00:18;;;;;;;15.38;6.15;;;10.50;99.90;;;;;;4937042;29;20229;-72
2021/10/17 08:02:46;;;;;;;9.95;6.38;;;10.60;99.90;;;;;;4937593;29;20214;-72
2021/10/17 08:05:12;;;;;;;14.95;6.95;;;10.60;99.90;;;;;;4938278;29;20210;-72
2021/10/17 08:07:39;;;;;;;9.73;6.38;;;10.60;99.90;;;;;;4938168;29;20258;-73
2021/10/17 08:10:07;;;;;;;7.93;7.13;;;10.70;99.90;;;;;;4936933;29;20220;-72
2021/10/17 08:12:34;;;;;;;18.50;8.63;;;10.60;99.90;;;;;;4937757;29;20288;-73
2021/10/17 08:15:01;;;;;;;9.63;7.43;;;10.70;99.90;;;;;;4938515;29;20271;-73
2021/10/17 08:17:27;;;;;;;12.57;7.50;;;10.60;99.90;;;;;;4938339;29;20261;-72
2021/10/17 08:19:56;;;;;;;10.48;7.25;;;10.60;99.90;;;;;;4938303;29;20364;-73
2021/10/17 08:22:23;;;;;;;8.77;7.60;;;10.70;99.90;;;;;;4939617;29;20653;-73
2021/10/17 08:24:50;;;;;;;9.65;5.88;;;10.70;99.90;;;;;;4941207;29;20214;-72
2021/10/17 08:27:17;;;;;;;13.48;7.25;;;10.70;99.90;;;;;;4938568;29;20251;-72
2021/10/17 08:29:44;;;;;;;7.05;6.18;;;10.70;99.90;;;;;;4936495;29;20269;-71
2021/10/17 08:32:11;;;;;;;10.18;6.50;;;10.70;99.90;;;;;;4937391;29;20226;-72
2021/10/17 08:34:37;;;;;;;10.77;7.30;;;10.70;99.90;;;;;;4936780;29;20213;-72
2021/10/17 08:37:06;;;;;;;9.88;7.22;;;10.70;99.90;;;;;;4936839;29;20674;-72
2021/10/17 08:39:32;;;;;;;7.68;6.45;;;10.80;99.90;;;;;;4935414;29;20269;-73
2021/10/17 08:41:59;;;;;;;7.57;6.85;;;10.80;99.90;;;;;;4936672;29;20305;-72
2021/10/17 08:44:26;;;;;;;9.43;6.35;;;10.80;99.90;;;;;;4936589;29;20261;-72
2021/10/17 08:46:52;;;;;;;13.85;7.25;;;10.80;99.90;;;;;;4936812;29;20655;-72
2021/10/17 08:49:21;;;;;;;10.32;6.43;;;10.80;99.90;;;;;;4936941;29;20237;-73
2021/10/17 08:51:47;;;;;;;8.50;6.55;;;10.80;99.90;;;;;;4937181;29;20285;-73
2021/10/17 08:54:15;;;;;;;10.07;6.97;;;10.80;99.90;;;;;;4937240;29;20217;-73
2021/10/17 08:56:42;;;;;;;11.00;7.70;;;10.80;99.90;;;;;;4937443;29;20671;-73
2021/10/17 08:59:09;;;;;;;10.77;6.68;;;10.80;99.90;;;;;;4938003;29;20301;-73
2021/10/17 09:01:36;;;;;;;10.57;7.65;;;10.80;99.90;;;;;;4935817;29;20305;-73
2021/10/17 09:04:06;;;;;;;12.75;8.40;;;10.80;99.90;;;;;;4936674;29;20281;-72
2021/10/17 09:06:35;;;;;;;11.75;7.55;;;10.90;99.90;;;;;;4936246;29;20305;-72
2021/10/17 09:09:07;;;;;;;11.77;8.02;;;11.00;99.90;;;;;;4936148;29;20320;-72
2021/10/17 09:11:40;;;;;;;14.52;8.07;;;11.00;99.90;;;;;;4935029;29;20276;-73
2021/10/17 09:14:09;;;;;;;7.00;6.40;;;11.10;99.90;;;;;;4936514;29;20217;-72
2021/10/17 09:16:37;;;;;;;11.30;7.65;;;11.20;99.90;;;;;;4936103;29;20268;-72
2021/10/17 09:19:15;;;;;;;7.50;6.70;;;11.20;99.90;;;;;;4936029;29;20245;-72
2021/10/17 09:21:56;;;;;;;13.00;7.25;;;11.30;99.90;;;;;;4934979;29;20241;-72
2021/10/17 09:24:29;;;;;;;8.63;6.50;;;11.30;99.90;;;;;;4935548;29;20225;-72
2021/10/17 09:27:23;;;;;;;7.93;6.82;;;11.30;99.90;;;;;;4935769;29;20269;-72
2021/10/17 09:29:52;;;;;;;8.48;6.10;;;11.30;99.90;;;;;;4926646;29;20232;-72
2021/10/17 09:32:22;;;;;;;10.38;6.25;;;11.30;99.90;;;;;;4936508;29;20298;-71
2021/10/17 09:34:54;;;;;;;7.30;6.65;;;11.30;99.90;;;;;;4934656;29;20589;-71
2021/10/17 09:37:21;;;;;;;9.77;6.78;;;11.30;99.90;;;;;;4935980;29;20224;-72
2021/10/17 09:40:00;;;;;;;10.57;6.30;;;11.30;99.90;;;;;;4935381;29;20285;-72
2021/10/17 09:42:30;;;;;;;9.95;5.97;;;11.30;99.90;;;;;;4935991;29;20233;-72
2021/10/17 09:44:57;;;;;;;9.98;6.25;;;11.30;99.90;;;;;;4935730;29;20217;-72
2021/10/17 09:47:38;;;;;;;9.98;6.53;;;11.30;99.90;;;;;;4935671;29;20663;-73
2021/10/17 09:50:12;;;;;;;8.52;7.65;;;11.30;99.90;;;;;;4935446;29;20300;-73
2021/10/17 09:52:39;;;;;;;10.20;6.55;;;11.30;99.90;;;;;;4935399;29;20586;-72
2021/10/17 09:55:07;;;;;;;14.95;6.85;;;11.30;99.90;;;;;;4934906;29;20597;-72
2021/10/17 09:57:36;;;;;;;7.43;6.60;;;11.30;99.90;;;;;;4935793;29;20214;-73
2021/10/17 10:00:03;;;;;;;9.13;7.35;;;11.30;99.90;;;;;;4935580;29;20540;-73
2021/10/17 10:02:30;;;;;;;8.25;6.20;;;11.40;99.90;;;;;;4935200;29;20293;-71
2021/10/17 10:04:58;;;;;;;11.13;7.07;;;11.40;99.90;;;;;;4935260;29;20206;-71
2021/10/17 10:07:26;;;;;;;7.55;6.15;;;11.50;99.90;;;;;;4935646;29;20206;-71
2021/10/17 10:09:57;;;;;;;7.82;7.00;;;11.50;99.90;;;;;;4934986;29;20615;-71
2021/10/17 10:12:26;;;;;;;7.10;6.32;;;11.50;99.90;;;;;;4935264;29;20233;-71
2021/10/17 10:14:56;;;;;;;10.87;6.37;;;11.60;99.90;;;;;;4935067;29;20666;-71
2021/10/17 10:17:23;;;;;;;8.15;7.15;;;11.70;99.90;;;;;;4935085;29;20461;-71
2021/10/17 10:19:50;;;;;;;10.20;6.53;;;11.70;99.90;;;;;;4934940;29;20273;-71
2021/10/17 10:22:18;;;;;;;11.25;6.82;;;11.80;99.90;;;;;;4934853;29;20485;-71
2021/10/17 10:24:50;;;;;;;6.80;6.20;;;11.80;99.90;;;;;;4933841;29;20729;-71
2021/10/17 10:27:17;;;;;;;7.05;5.75;;;11.90;99.90;;;;;;4935217;29;20851;-71
2021/10/17 10:29:44;;;;;;;11.27;6.13;;;11.90;99.90;;;;;;4932973;29;20289;-71
2021/10/17 10:32:22;;;;;;;7.70;5.77;;;11.90;99.90;;;;;;4934764;29;21024;-71
2021/10/17 10:34:54;;;;;;;6.93;6.23;;;12.00;99.90;;;;;;4934999;29;20481;-71
2021/10/17 10:37:22;;;;;;;13.20;8.87;;;12.00;99.90;;;;;;4935274;29;20616;-71
2021/10/17 10:40:10;;;;;;;9.13;7.03;;;12.00;99.90;;;;;;4934292;29;20959;-71
2021/10/17 10:42:38;;;;;;;12.30;7.23;;;12.10;99.90;;;;;;4934666;29;20484;-71
2021/10/17 10:45:35;;;;;;;11.10;7.20;;;12.10;99.90;;;;;;4934884;29;20521;-71
2021/10/17 10:48:22;;;;;;;8.40;6.30;;;12.10;99.90;;;;;;4935221;29;20862;-71
2021/10/17 10:50:51;;;;;;;11.98;6.38;;;12.10;99.90;;;;;;4934718;29;20517;-72
2021/10/17 10:53:51;;;;;;;15.02;7.60;;;12.00;99.90;;;;;;4935011;29;20221;-71
2021/10/17 10:56:48;;;;;;;16.98;9.63;;;11.90;99.90;;;;;;4934447;29;20269;-72
2021/10/17 10:59:17;;;;;;;16.63;9.52;;;11.80;99.90;;;;;;4934947;29;20620;-72
2021/10/17 11:01:55;;;;;;;14.40;8.85;;;11.80;99.90;;;;;;4934767;29;20329;-71
2021/10/17 11:05:04;;;;;;;11.05;7.30;;;11.70;99.90;;;;;;4934457;29;20667;-72
2021/10/17 11:07:44;;;;;;;11.95;7.40;;;11.70;99.90;;;;;;4934603;29;20221;-72
2021/10/17 11:10:42;;;;;;;9.77;6.60;;;11.70;99.90;;;;;;4934011;29;20233;-72
2021/10/17 11:13:28;;;;;;;12.82;7.15;;;11.70;99.90;;;;;;4934789;29;20218;-72
2021/10/17 11:15:56;;;;;;;7.90;7.00;;;11.70;99.90;;;;;;4934673;29;20611;-72
2021/10/17 11:18:31;;;;;;;9.20;7.43;;;11.70;99.90;;;;;;4935006;29;20205;-72
2021/10/17 11:20:59;;;;;;;8.95;6.78;;;11.80;99.90;;;;;;4934859;29;20240;-71
2021/10/17 11:23:28;;;;;;;9.75;6.30;;;11.80;99.90;;;;;;4933717;29;20675;-71
2021/10/17 11:25:57;;;;;;;10.07;6.40;;;11.80;99.90;;;;;;4934113;29;20210;-71
2021/10/17 11:28:24;;;;;;;8.18;6.22;;;11.80;99.90;;;;;;4934535;29;20273;-72
2021/10/17 11:31:01;;;;;;;9.73;6.55;;;11.90;99.90;;;;;;4934394;29;20359;-71
2021/10/17 11:33:28;;;;;;;9.40;6.45;;;11.90;99.90;;;;;;4934380;29;20276;-71
2021/10/17 11:35:56;;;;;;;13.25;6.53;;;11.90;99.90;;;;;;4936851;29;20205;-71
2021/10/17 11:38:24;;;;;;;10.45;7.15;;;11.90;99.90;;;;;;4937090;29;20277;-71
2021/10/17 11:41:00;;;;;;;9.20;6.90;;;11.90;99.90;;;;;;4936856;29;20285;-71
2021/10/17 11:43:33;;;;;;;10.95;7.20;;;11.90;99.90;;;;;;4937882;29;20210;-71
2021/10/17 11:46:03;;;;;;;14.70;6.25;;;11.90;99.90;;;;;;4937651;29;20217;-71
2021/10/17 11:48:29;;;;;;;8.18;7.03;;;11.90;99.90;;;;;;4937394;29;20293;-72
2021/10/17 11:50:56;;;;;;;11.25;6.82;;;11.90;99.90;;;;;;4937592;29;20245;-71
2021/10/17 11:53:23;;;;;;;9.93;5.95;;;11.90;99.90;;;;;;4937250;29;20249;-72
2021/10/17 11:55:52;;;;;;;8.05;6.93;;;12.00;99.90;;;;;;4937361;29;20285;-72
2021/10/17 11:58:22;;;;;;;8.45;5.70;;;12.00;99.90;;;;;;4937409;29;20245;-72
2021/10/17 12:00:50;;;;;;;10.10;7.15;;;12.00;99.90;;;;;;4937433;29;20237;-72
2021/10/17 12:03:18;;;;;;;10.30;6.20;;;12.00;99.90;;;;;;4937214;29;20217;-72
2021/10/17 12:05:46;;;;;;;10.37;6.33;;;12.00;99.90;;;;;;4937144;29;20674;-72
2021/10/17 12:08:20;;;;;;;15.55;9.20;;;12.00;99.90;;;;;;4937374;29;20552;-72
2021/10/17 12:11:00;;;;;;;16.02;8.10;;;12.10;99.90;;;;;;4936434;29;20232;-72
2021/10/17 12:13:27;;;;;;;9.55;6.10;;;12.10;99.90;;;;;;4937148;29;20214;-72
2021/10/17 12:16:05;;;;;;;8.33;6.40;;;12.10;99.90;;;;;;4937068;29;20245;-72
2021/10/17 12:18:32;;;;;;;6.90;6.20;;;12.10;99.90;;;;;;4936070;29;20965;-72
2021/10/17 12:21:00;;;;;;;7.53;5.97;;;12.10;99.90;;;;;;4937350;29;20237;-72
2021/10/17 12:23:27;;;;;;;7.05;5.63;;;12.10;99.90;;;;;;4936670;29;20229;-72
2021/10/17 12:25:54;;;;;;;9.40;5.85;;;12.10;99.90;;;;;;4936650;29;20214;-72
2021/10/17 12:28:22;;;;;;;8.05;6.13;;;12.10;99.90;;;;;;4937137;29;20285;-72
2021/10/17 12:30:50;;;;;;;6.90;5.30;;;12.10;99.90;;;;;;4936616;29;20242;-72
2021/10/17 12:33:28;;;;;;;8.20;5.20;;;12.10;99.90;;;;;;4936995;29;20565;-71
2021/10/17 12:35:55;;;;;;;6.77;5.83;;;12.20;99.90;;;;;;4936963;29;20555;-71
2021/10/17 12:38:28;;;;;;;5.50;4.93;;;12.20;99.90;;;;;;4937007;29;20548;-71
2021/10/17 12:40:57;;;;;;;5.37;4.97;;;12.20;99.90;;;;;;4936116;29;20501;-72
2021/10/17 12:43:26;;;;;;;7.33;5.77;;;12.20;99.90;;;;;;4936515;29;20809;-72
2021/10/17 12:45:54;;;;;;;6.20;5.60;;;12.20;99.90;;;;;;4936798;29;20462;-72
2021/10/17 12:48:35;;;;;;;9.60;5.47;;;12.20;99.90;;;;;;4936759;29;20209;-71
2021/10/17 12:51:01;;;;;;;9.60;6.70;;;12.20;99.90;;;;;;4936787;29;20532;-72
2021/10/17 12:53:29;;;;;;;11.30;7.43;;;12.20;99.90;;;;;;4935682;29;20284;-72
2021/10/17 12:55:58;;;;;;;8.07;6.38;;;12.20;99.90;;;;;;4936236;29;20462;-71
2021/10/17 12:58:29;;;;;;;5.95;5.35;;;12.10;99.90;;;;;;4936340;29;20530;-72
2021/10/17 13:01:04;;;;;;;6.07;5.35;;;12.10;99.90;;;;;;4936113;29;20317;-71
2021/10/17 13:03:31;;;;;;;8.45;6.07;;;12.10;99.90;;;;;;4937634;29;20221;-71
2021/10/17 13:05:59;;;;;;;12.23;7.50;;;12.10;99.90;;;;;;4936322;29;20284;-72
2021/10/17 13:08:27;;;;;;;9.00;6.10;;;12.10;99.90;;;;;;4935694;29;20210;-71
2021/10/17 13:11:08;;;;;;;7.68;6.50;;;12.10;99.90;;;;;;4936037;29;20230;-72
2021/10/17 13:13:36;;;;;;;7.20;6.50;;;12.10;99.90;;;;;;4936100;29;20309;-71
2021/10/17 13:16:03;;;;;;;8.90;6.18;;;12.10;99.90;;;;;;4936318;29;20214;-72
2021/10/17 13:18:30;;;;;;;14.07;6.65;;;12.00;99.90;;;;;;4939444;29;20214;-72
2021/10/17 13:20:57;;;;;;;8.00;6.35;;;12.00;99.90;;;;;;4936003;29;20281;-73
2021/10/17 13:23:24;;;;;;;8.15;7.13;;;12.00;99.90;;;;;;4936003;29;20578;-73
2021/10/17 13:25:54;;;;;;;7.72;6.95;;;12.10;99.90;;;;;;4935461;29;20543;-73
2021/10/17 13:28:21;;;;;;;11.05;6.28;;;12.10;99.90;;;;;;4935948;29;20220;-73
2021/10/17 13:30:49;;;;;;;7.38;6.60;;;12.10;99.90;;;;;;4935754;29;20321;-73
2021/10/17 13:33:17;;;;;;;6.30;5.70;;;12.10;99.90;;;;;;4935401;29;20741;-72
2021/10/17 13:35:44;;;;;;;6.72;6.20;;;12.10;99.90;;;;;;4935561;29;20255;-73
2021/10/17 13:38:13;;;;;;;6.15;5.60;;;12.10;99.90;;;;;;4936056;29;20283;-73
2021/10/17 13:40:41;;;;;;;7.80;6.18;;;12.00;99.90;;;;;;4934981;29;20686;-73
2021/10/17 13:43:08;;;;;;;6.90;6.30;;;12.00;99.90;;;;;;4935630;29;20282;-73
2021/10/17 13:45:36;;;;;;;9.23;6.03;;;12.00;99.90;;;;;;4935324;29;20234;-74
2021/10/17 13:48:05;;;;;;;13.70;5.95;;;12.00;99.90;;;;;;4935297;29;20288;-74
2021/10/17 13:50:33;;;;;;;7.60;6.28;;;12.00;99.90;;;;;;4935264;29;20643;-73
2021/10/17 13:53:00;;;;;;;7.18;6.15;;;12.00;99.90;;;;;;4935546;29;20240;-73
2021/10/17 13:55:26;;;;;;;7.57;6.82;;;12.00;99.90;;;;;;4934672;29;20257;-73
2021/10/17 13:57:53;;;;;;;11.10;7.82;;;12.00;99.90;;;;;;4935025;29;20244;-74
2021/10/17 14:00:24;;;;;;;9.60;7.68;;;12.00;99.90;;;;;;4934549;29;20222;-73
2021/10/17 14:02:52;;;;;;;12.63;7.75;;;11.90;99.90;;;;;;4935324;29;20217;-75
2021/10/17 14:05:20;;;;;;;11.02;7.55;;;11.90;99.90;;;;;;4935147;29;20205;-73
2021/10/17 14:07:47;;;;;;;9.48;8.00;;;11.90;99.90;;;;;;4935812;29;20209;-74
2021/10/17 14:10:14;;;;;;;13.63;8.15;;;11.90;99.90;;;;;;4934234;29;20234;-73
2021/10/17 14:12:40;;;;;;;7.68;6.80;;;11.90;99.90;;;;;;4935036;29;20304;-72
2021/10/17 14:15:08;;;;;;;12.75;7.40;;;11.80;99.90;;;;;;4935374;29;20309;-73
2021/10/17 14:17:35;;;;;;;8.45;6.60;;;11.80;99.90;;;;;;4935468;29;20206;-72
2021/10/17 14:20:03;;;;;;;9.75;6.18;;;11.80;99.90;;;;;;4935256;29;20210;-72
2021/10/17 14:22:31;;;;;;;6.90;6.43;;;11.80;99.90;;;;;;4935085;29;20230;-72
2021/10/17 14:24:58;;;;;;;10.25;6.78;;;11.80;99.90;;;;;;4934163;29;20741;-74
2021/10/17 14:27:24;;;;;;;7.85;7.07;;;11.80;99.90;;;;;;4934663;29;20694;-74
2021/10/17 14:29:51;;;;;;;6.50;5.90;;;11.70;99.90;;;;;;4934841;29;20237;-72
2021/10/17 14:32:18;;;;;;;8.30;7.40;;;11.70;99.90;;;;;;4934386;29;20698;-73
2021/10/17 14:34:45;;;;;;;13.18;8.90;;;11.70;99.90;;;;;;4934853;29;20213;-73
2021/10/17 14:37:11;;;;;;;16.55;9.25;;;11.70;99.90;;;;;;4934444;29;20301;-72
2021/10/17 14:39:39;;;;;;;9.27;8.57;;;11.70;99.90;;;;;;4933716;29;20262;-73
2021/10/17 14:42:06;;;;;;;13.68;8.10;;;11.70;99.90;;;;;;4934407;29;20241;-72
2021/10/17 14:44:33;;;;;;;10.90;7.38;;;11.70;99.90;;;;;;4932335;29;20269;-72
2021/10/17 14:47:01;;;;;;;8.25;7.40;;;11.60;99.90;;;;;;4934590;29;20273;-72
2021/10/17 14:49:28;;;;;;;7.30;6.50;;;11.60;99.90;;;;;;4934782;29;20321;-72
2021/10/17 14:51:55;;;;;;;8.38;7.60;;;11.60;99.90;;;;;;4934572;29;20237;-72
2021/10/17 14:54:21;;;;;;;7.35;6.72;;;11.60;99.90;;;;;;4933675;29;20285;-72
2021/10/17 14:56:49;;;;;;;8.15;7.20;;;11.50;99.90;;;;;;4934296;29;20280;-72
2021/10/17 14:59:16;;;;;;;6.70;6.03;;;11.60;99.90;;;;;;4934411;29;20292;-72
2021/10/17 15:01:42;;;;;;;9.70;7.38;;;11.60;99.90;;;;;;4934486;29;20245;-73
2021/10/17 15:04:09;;;;;;;12.70;7.03;;;11.50;99.90;;;;;;4934340;29;20241;-70
2021/10/17 15:06:36;;;;;;;10.68;7.53;;;11.60;99.90;;;;;;4934341;29;20729;-74
2021/10/17 15:09:03;;;;;;;11.60;7.00;;;11.50;99.90;;;;;;4933972;29;20738;-72
2021/10/17 15:11:29;;;;;;;10.23;7.45;;;11.60;99.90;;;;;;4937587;29;20237;-71
2021/10/17 15:13:58;;;;;;;7.78;6.57;;;11.50;99.90;;;;;;4938514;29;20678;-72
2021/10/17 15:16:24;;;;;;;9.90;7.60;;;11.50;99.90;;;;;;4938324;29;20234;-70
2021/10/17 15:18:51;;;;;;;6.70;6.05;;;11.50;99.90;;;;;;4939405;29;20305;-70
2021/10/17 15:21:18;;;;;;;11.30;6.72;;;11.50;99.90;;;;;;4938178;29;20305;-69
2021/10/17 15:23:44;;;;;;;15.93;7.95;;;11.50;99.90;;;;;;4938017;29;20591;-69
2021/10/17 15:26:11;;;;;;;6.95;5.72;;;11.50;99.90;;;;;;4937888;29;20218;-69
2021/10/17 15:28:38;;;;;;;8.10;6.50;;;11.50;99.90;;;;;;4939157;29;20249;-69
2021/10/17 15:31:06;;;;;;;6.55;5.85;;;11.50;99.90;;;;;;4939337;29;20241;-69
2021/10/17 15:33:32;;;;;;;8.38;6.28;;;11.50;99.90;;;;;;4938623;29;20662;-70
2021/10/17 15:35:59;;;;;;;9.60;6.30;;;11.50;99.90;;;;;;4938511;29;20269;-70
2021/10/17 15:38:25;;;;;;;7.78;7.05;;;11.50;99.90;;;;;;4938898;29;20206;-71
2021/10/17 15:40:52;;;;;;;11.80;7.88;;;11.40;99.90;;;;;;4939068;29;20738;-69
2021/10/17 15:43:19;;;;;;;10.82;7.35;;;11.50;99.90;;;;;;4937915;29;20714;-69
2021/10/17 15:45:45;;;;;;;8.35;7.30;;;11.40;99.90;;;;;;4937186;29;20229;-69
2021/10/17 15:48:13;;;;;;;8.82;7.38;;;11.40;99.90;;;;;;4938054;29;20261;-69
2021/10/17 15:50:40;;;;;;;10.52;8.90;;;11.40;99.90;;;;;;4937658;29;20238;-69
2021/10/17 15:53:07;;;;;;;9.38;6.97;;;11.40;99.90;;;;;;4937947;29;20250;-69
2021/10/17 15:55:34;;;;;;;10.15;6.97;;;11.40;99.90;;;;;;4936935;29;20623;-70
2021/10/17 15:58:00;;;;;;;8.02;6.95;;;11.40;99.90;;;;;;4937857;29;20236;-69
2021/10/17 16:00:27;;;;;;;11.10;8.35;;;11.40;99.90;;;;;;4937468;29;20730;-70
2021/10/17 16:02:54;;;;;;;10.15;7.63;;;11.40;99.90;;;;;;4937720;29;20213;-70
2021/10/17 16:05:22;;;;;;;9.50;8.10;;;11.30;99.90;;;;;;4937308;29;20214;-70
2021/10/17 16:07:48;;;;;;;14.20;8.48;;;11.30;99.90;;;;;;4937749;29;20213;-70
2021/10/17 16:10:15;;;;;;;9.20;7.75;;;11.40;99.90;;;;;;4936447;29;20269;-70
2021/10/17 16:12:42;;;;;;;8.55;7.72;;;11.30;99.90;;;;;;4937330;29;20590;-70
2021/10/17 16:15:09;;;;;;;9.18;8.02;;;11.30;99.90;;;;;;4937337;29;20293;-70
2021/10/17 16:17:36;;;;;;;8.05;7.20;;;11.30;99.90;;;;;;4937086;29;20210;-70
2021/10/17 16:20:05;;;;;;;13.55;7.60;;;11.30;99.90;;;;;;4937073;29;20265;-70
2021/10/17 16:22:34;;;;;;;11.68;7.00;;;11.30;99.90;;;;;;4936684;29;20217;-70
2021/10/17 16:25:01;;;;;;;10.20;7.40;;;11.30;99.90;;;;;;4936175;29;20229;-70
2021/10/17 16:27:32;;;;;;;7.32;6.70;;;11.30;99.90;;;;;;4935594;29;20289;-70
2021/10/17 16:29:59;;;;;;;10.15;7.68;;;11.30;99.90;;;;;;4936762;29;20765;-70
2021/10/17 16:32:32;;;;;;;9.48;7.50;;;11.30;99.90;;;;;;4936848;29;20241;-71
2021/10/17 16:34:59;;;;;;;8.43;7.38;;;11.30;99.90;;;;;;4937332;29;20561;-71
2021/10/17 16:37:26;;;;;;;8.45;7.10;;;11.30;99.90;;;;;;4938559;29;20222;-71
2021/10/17 16:39:54;;;;;;;9.20;7.43;;;11.30;99.90;;;;;;4936362;29;20293;-70
2021/10/17 16:42:20;;;;;;;9.77;7.40;;;11.30;99.90;;;;;;4936571;29;20309;-72
2021/10/17 16:44:47;;;;;;;7.82;7.15;;;11.30;99.90;;;;;;4936551;29;20261;-72
2021/10/17 16:47:14;;;;;;;8.63;7.82;;;11.30;99.90;;;;;;4936544;29;20209;-72
2021/10/17 16:49:41;;;;;;;10.35;8.50;;;11.30;99.90;;;;;;4936468;29;20269;-72
2021/10/17 16:52:08;;;;;;;9.75;8.50;;;11.30;99.90;;;;;;4936504;29;20230;-71
2021/10/17 16:54:34;;;;;;;11.00;8.63;;;11.30;99.90;;;;;;4935702;29;20206;-72